.
WxDataArchive / Data Records for 2006-03-01
2006-02-28 March 2006 2006-03-02

Data Records for Wednesday, 01 March 2006

Time	Temp	Chill	HIndex	Humid	Dewpt	 Wind 	HiWind	WindDir	Rain 	Barom 
-----	----	-----	------	-----	-----	------	------	-------	-----	----- 
00:00	34.0	34.0	34.0	38	11.1	1	4	112	0.00	29.938 
00:05	34.0	34.0	34.0	37	10.5	0	2	68	0.00	29.938 
00:10	33.8	33.8	33.8	35	9.1	1	3	68	0.00	29.938 
00:15	33.8	33.8	33.8	35	9.1	1	3	68	0.00	29.931 
00:20	33.8	33.8	33.8	36	9.7	1	3	90	0.00	29.931 
00:25	33.7	33.7	33.7	36	9.6	1	3	22	0.00	29.931 
00:30	33.7	33.7	33.7	36	9.6	1	3	68	0.00	29.930 
00:35	33.5	33.5	33.5	36	9.4	1	3	45	0.00	29.930 
00:40	33.5	33.5	33.5	36	9.4	1	2	45	0.00	29.930 
00:45	33.4	33.4	33.4	37	10.0	0	2	45	0.00	29.925 
00:50	33.4	33.4	33.4	38	10.6	0	1	45	0.00	29.925 
00:55	33.2	33.2	33.2	39	11.0	0	2	112	0.00	29.925 
01:00	33.1	33.1	33.1	38	10.3	0	1	112	0.00	29.927 
01:05	33.1	33.1	33.1	39	10.9	0	1	112	0.00	29.927 
01:10	32.9	32.9	32.9	39	10.7	0	2	112	0.00	29.927 
01:15	32.8	32.8	32.8	40	11.2	0	1	112	0.00	29.931 
01:20	32.5	32.5	32.5	40	10.9	0	2	90	0.00	29.931 
01:25	32.4	32.4	32.4	40	10.8	0	1	90	0.00	29.931 
01:30	32.2	32.2	32.2	41	11.2	0	0	---	0.00	29.930 
01:35	31.9	31.9	31.9	42	11.4	0	1	90	0.00	29.930 
01:40	31.6	31.6	31.6	43	11.7	0	1	90	0.00	29.930 
01:45	31.3	31.3	31.3	43	11.4	0	0	---	0.00	29.931 
01:50	30.9	30.9	30.9	43	11.1	0	2	90	0.00	29.931 
01:55	30.9	30.9	30.9	43	11.1	1	2	90	0.00	29.931 
02:00	30.9	30.9	30.9	43	11.1	1	2	90	0.00	29.933 
02:05	30.9	30.9	30.9	43	11.1	0	2	90	0.00	29.933 
02:10	30.9	30.9	30.9	44	11.6	0	2	90	0.00	29.933 
02:15	30.7	30.7	30.7	44	11.4	1	3	90	0.00	29.932 
02:20	30.7	30.7	30.7	45	11.9	1	2	45	0.00	29.932 
02:25	30.6	30.6	30.6	46	12.3	1	3	45	0.00	29.932 
02:30	30.4	30.4	30.4	47	12.6	0	2	112	0.00	29.937 
02:35	30.6	30.6	30.6	47	12.8	1	4	45	0.00	29.937 
02:40	30.4	30.4	30.4	48	13.1	1	3	112	0.00	29.937 
02:45	30.4	30.4	30.4	49	13.6	0	2	112	0.00	29.934 
02:50	30.3	30.3	30.3	50	13.9	0	2	90	0.00	29.934 
02:55	30.3	30.3	30.3	50	13.9	0	3	68	0.00	29.934 
03:00	30.1	30.1	30.1	50	13.7	0	2	68	0.00	29.934 
03:05	30.1	30.1	30.1	50	13.7	0	1	68	0.00	29.934 
03:10	30.1	30.1	30.1	50	13.7	0	3	68	0.00	29.934 
03:15	30.3	30.3	30.3	50	13.9	1	3	68	0.00	29.934 
03:20	30.3	30.3	30.3	50	13.9	1	3	68	0.00	29.934 
03:25	30.3	30.3	30.3	50	13.9	0	1	90	0.00	29.934 
03:30	30.3	30.3	30.3	51	14.4	0	1	90	0.00	29.932 
03:35	30.3	30.3	30.3	51	14.4	0	2	90	0.00	29.932 
03:40	30.3	30.3	30.3	51	14.4	0	2	90	0.00	29.932 
03:45	30.1	30.1	30.1	52	14.6	0	2	90	0.00	29.930 
03:50	30.0	30.0	30.0	52	14.5	0	1	90	0.00	29.930 
03:55	30.0	30.0	30.0	52	14.5	0	2	90	0.00	29.930 
04:00	29.8	29.8	29.8	53	14.8	0	1	90	0.00	29.921 
04:05	29.8	29.8	29.8	53	14.8	1	2	90	0.00	29.921 
04:10	30.0	30.0	30.0	53	15.0	1	3	90	0.00	29.921 
04:15	30.0	30.0	30.0	54	15.4	1	3	90	0.00	29.918 
04:20	30.0	30.0	30.0	53	15.0	1	2	90	0.00	29.918 
04:25	29.8	29.8	29.8	54	15.2	1	3	90	0.00	29.918 
04:30	29.8	29.8	29.8	53	14.8	1	4	90	0.00	29.925 
04:35	29.8	29.8	29.8	53	14.8	1	2	112	0.00	29.925 
04:40	29.7	29.7	29.7	53	14.7	1	3	112	0.00	29.925 
04:45	29.7	29.7	29.7	53	14.7	1	3	112	0.00	29.931 
04:50	29.5	29.5	29.5	53	14.5	1	2	112	0.00	29.931 
04:55	29.4	29.4	29.4	54	14.8	0	3	112	0.00	29.931 
05:00	29.4	29.4	29.4	55	15.3	1	3	90	0.00	29.936 
05:05	29.3	29.3	29.3	55	15.2	1	3	90	0.00	29.936 
05:10	29.1	29.1	29.1	55	15.0	1	2	90	0.00	29.936 
05:15	29.0	29.0	29.0	55	14.9	1	3	90	0.00	29.932 
05:20	28.8	28.8	28.8	55	14.7	2	3	90	0.00	29.932 
05:25	28.8	28.8	28.8	55	14.7	1	3	90	0.00	29.932 
05:30	28.7	28.7	28.7	56	15.0	1	3	90	0.00	29.937 
05:35	28.5	28.5	28.5	56	14.8	1	2	90	0.00	29.937 
05:40	28.5	28.5	28.5	56	14.8	1	2	90	0.00	29.937 
05:45	28.4	28.4	28.4	57	15.1	1	2	90	0.00	29.947 
05:50	28.4	28.4	28.4	57	15.1	1	2	90	0.00	29.947 
05:55	28.2	28.2	28.2	58	15.3	1	2	90	0.00	29.947 
06:00	28.2	28.2	28.2	58	15.3	1	2	90	0.00	29.953 
06:05	28.1	28.1	28.1	59	15.6	0	2	90	0.00	29.953 
06:10	27.9	27.9	27.9	59	15.5	0	1	90	0.00	29.953 
06:15	27.8	27.8	27.8	60	15.7	0	1	90	0.00	29.963 
06:20	27.6	27.6	27.6	61	15.9	0	1	90	0.00	29.963 
06:25	27.6	27.6	27.6	60	15.6	1	3	90	0.00	29.963 
06:30	27.8	27.8	27.8	60	15.7	1	3	90	0.00	29.959 
06:35	27.8	27.8	27.8	59	15.4	1	3	90	0.00	29.959 
06:40	27.8	27.8	27.8	59	15.4	2	5	90	0.00	29.959 
06:45	27.9	27.9	27.9	59	15.5	2	6	90	0.00	29.966 
06:50	28.1	28.1	28.1	59	15.6	3	6	90	0.00	29.966 
06:55	28.1	28.1	28.1	58	15.3	3	7	90	0.00	29.966 
07:00	28.1	28.1	28.1	60	16.0	2	5	112	0.00	29.961 
07:05	28.1	28.1	28.1	59	15.6	3	10	112	0.00	29.961 
07:10	28.1	23.6	28.1	59	15.6	4	10	112	0.00	29.961 
07:15	27.9	23.3	27.9	60	15.8	4	7	90	0.00	29.957 
07:20	27.9	27.9	27.9	60	15.8	3	7	90	0.00	29.957 
07:25	27.9	27.9	27.9	61	16.2	2	6	112	0.00	29.957 
07:30	27.8	27.8	27.8	61	16.1	2	5	90	0.00	29.961 
07:35	27.8	27.8	27.8	62	16.5	3	6	90	0.00	29.961 
07:40	27.8	27.8	27.8	61	16.1	3	7	112	0.00	29.961 
07:45	27.8	23.2	27.8	61	16.1	4	11	112	0.00	29.957 
07:50	27.8	27.8	27.8	62	16.5	3	6	90	0.00	29.957 
07:55	27.8	27.8	27.8	62	16.5	3	6	90	0.00	29.957 
08:00	27.9	27.9	27.9	61	16.2	3	7	90	0.00	29.965 
08:05	27.9	27.9	27.9	62	16.6	3	7	90	0.00	29.965 
08:10	27.9	27.9	27.9	61	16.2	3	9	90	0.00	29.965 
08:15	28.1	23.6	28.1	61	16.4	4	11	90	0.00	29.975 
08:20	28.2	23.7	28.2	60	16.1	4	9	112	0.00	29.975 
08:25	28.4	23.9	28.4	59	15.9	4	10	90	0.00	29.975 
08:30	28.5	24.0	28.5	58	15.6	4	9	112	0.00	29.979 
08:35	28.7	24.3	28.7	57	15.4	4	9	90	0.00	29.979 
08:40	29.0	24.6	29.0	55	14.9	4	10	112	0.00	29.979 
08:45	29.3	25.0	29.3	54	14.7	4	11	112	0.00	29.972 
08:50	29.4	24.0	29.4	53	14.4	5	10	112	0.00	29.972 
08:55	29.7	29.7	29.7	54	15.1	3	7	112	0.00	29.972 
09:00	30.1	30.1	30.1	53	15.1	3	6	112	0.00	29.971 
09:05	30.3	30.3	30.3	53	15.2	3	9	90	0.00	29.971 
09:10	30.3	25.1	30.3	52	14.8	5	10	112	0.00	29.971 
09:15	30.3	25.1	30.3	51	14.4	5	9	90	0.00	29.979 
09:20	30.6	26.5	30.6	51	14.6	4	9	90	0.00	29.979 
09:25	30.7	25.5	30.7	50	14.3	5	11	112	0.00	29.979 
09:30	31.0	26.9	31.0	50	14.6	4	11	90	0.00	29.984 
09:35	31.0	25.9	31.0	49	14.1	5	11	90	0.00	29.984 
09:40	31.0	26.9	31.0	49	14.1	4	9	112	0.00	29.984 
09:45	31.3	27.3	31.3	50	14.8	4	10	112	0.00	29.984 
09:50	31.5	27.5	31.5	49	14.6	4	7	112	0.00	29.984 
09:55	31.5	25.6	31.5	49	14.6	6	10	112	0.00	29.984 
10:00	31.6	25.8	31.6	49	14.7	6	12	112	0.00	29.983 
10:05	31.8	26.8	31.8	50	15.3	5	10	112	0.00	29.983 
10:10	31.9	27.0	31.9	50	15.4	5	11	112	0.00	29.983 
10:15	32.2	27.3	32.2	50	15.7	5	11	112	0.00	29.995 
10:20	32.2	26.5	32.2	50	15.7	6	10	112	0.00	29.995 
10:25	32.5	27.7	32.5	50	16.0	5	10	112	0.00	29.995 
10:30	32.5	27.7	32.5	50	16.0	5	10	90	0.00	29.996 
10:35	32.7	27.9	32.7	48	15.2	5	11	112	0.00	29.996 
10:40	32.9	29.1	32.9	47	14.9	4	9	112	0.00	29.996 
10:45	33.2	29.5	33.2	47	15.2	4	9	90	0.00	29.998 
10:50	33.2	29.5	33.2	46	14.7	4	7	112	0.00	29.998 
10:55	33.4	33.4	33.4	46	14.9	3	6	112	0.00	29.998 
11:00	33.7	33.7	33.7	47	15.6	3	6	112	0.00	30.000 
11:05	34.0	34.0	34.0	47	15.9	3	5	90	0.00	30.000 
11:10	34.3	30.7	34.3	47	16.2	4	8	112	0.00	30.000 
11:15	34.3	29.8	34.3	47	16.2	5	12	112	0.00	29.991 
11:20	34.4	30.8	34.4	47	16.3	4	9	112	0.00	29.991 
11:25	34.7	31.2	34.7	47	16.6	4	8	112	0.00	29.991 
11:30	34.6	30.1	34.6	48	16.9	5	10	112	0.00	29.981 
11:35	34.3	29.0	34.3	47	16.2	6	11	112	0.00	29.981 
11:40	34.6	31.1	34.6	47	16.5	4	10	112	0.00	29.981 
11:45	34.6	31.1	34.6	49	17.4	4	9	112	0.00	29.977 
11:50	34.9	31.4	34.9	47	16.7	4	8	112	0.00	29.977 
11:55	34.9	30.5	34.9	49	17.7	5	10	112	0.00	29.977 
12:00	34.9	30.5	34.9	48	17.2	5	11	90	0.00	29.968 
12:05	34.9	29.7	34.9	47	16.7	6	11	112	0.00	29.968 
12:10	34.7	29.4	34.7	48	17.0	6	12	90	0.00	29.968 
12:15	35.2	30.0	35.2	48	17.5	6	11	112	0.00	29.947 
12:20	35.3	30.2	35.3	47	17.1	6	14	90	0.00	29.947 
12:25	35.8	30.8	35.8	46	17.1	6	12	112	0.00	29.947 
12:30	36.3	33.0	36.3	46	17.5	4	11	112	0.00	29.957 
12:35	36.2	32.0	36.2	46	17.4	5	13	112	0.00	29.957 
12:40	36.3	36.3	36.3	44	16.5	2	7	90	0.00	29.957 
12:45	36.5	33.3	36.5	44	16.7	4	11	90	0.00	29.964 
12:50	36.5	32.4	36.5	42	15.6	5	10	112	0.00	29.964 
12:55	36.8	33.6	36.8	43	16.4	4	9	112	0.00	29.964 
13:00	36.8	32.7	36.8	44	17.0	5	11	112	0.00	29.959 
13:05	36.9	32.1	36.9	42	16.0	6	11	112	0.00	29.959 
13:10	36.9	32.8	36.9	42	16.0	5	13	112	0.00	29.959 
13:15	37.0	32.9	37.0	41	15.5	5	11	112	0.00	29.937 
13:20	37.2	33.2	37.2	41	15.7	5	10	112	0.00	29.937 
13:25	37.6	32.9	37.6	41	16.1	6	12	112	0.00	29.937 
13:30	37.3	31.9	37.3	42	16.3	7	12	112	0.00	29.915 
13:35	37.8	34.8	37.8	42	16.8	4	8	112	0.00	29.915 
13:40	38.0	35.0	38.0	40	15.8	4	9	112	0.00	29.915 
13:45	38.2	34.4	38.2	40	16.0	5	11	112	0.00	29.901 
13:50	38.0	34.1	38.0	40	15.8	5	10	112	0.00	29.901 
13:55	38.0	34.1	38.0	41	16.4	5	9	112	0.00	29.901 
14:00	38.0	35.0	38.0	41	16.4	4	9	112	0.00	29.907 
14:05	38.2	34.4	38.2	41	16.6	5	9	90	0.00	29.907 
14:10	38.3	35.4	38.3	40	16.1	4	10	112	0.00	29.907 
14:15	38.5	38.5	38.5	41	16.9	3	7	112	0.00	29.907 
14:20	38.9	38.9	38.9	42	17.8	2	6	112	0.00	29.907 
14:25	39.1	36.3	39.1	41	17.4	4	8	112	0.00	29.907 
14:30	39.1	39.1	39.1	41	17.4	3	6	112	0.00	29.911 
14:35	39.2	39.2	39.2	40	16.9	3	6	90	0.00	29.911 
14:40	39.3	39.3	39.3	41	17.6	2	7	112	0.00	29.911 
14:45	39.6	39.6	39.6	40	17.3	2	5	112	0.00	29.908 
14:50	39.6	39.6	39.6	40	17.3	3	9	90	0.00	29.908 
14:55	39.8	39.8	39.8	39	16.9	3	7	112	0.00	29.908 
15:00	39.8	39.8	39.8	39	16.9	3	7	90	0.00	29.896 
15:05	39.9	37.2	39.9	42	18.7	4	7	90	0.00	29.896 
15:10	40.2	40.2	40.2	40	17.8	3	7	90	0.00	29.896 
15:15	40.3	40.3	40.3	40	17.9	3	6	112	0.00	29.889 
15:20	40.3	37.7	40.3	40	17.9	4	9	112	0.00	29.889 
15:25	40.1	36.6	40.1	40	17.7	5	10	90	0.00	29.889 
15:30	39.9	37.2	39.9	40	17.6	4	11	112	0.00	29.881 
15:35	39.9	37.2	39.9	40	17.6	4	10	90	0.00	29.881 
15:40	39.9	36.4	39.9	39	17.0	5	9	112	0.00	29.881 
15:45	39.9	36.4	39.9	39	17.0	5	10	112	0.00	29.875 
15:50	40.1	40.1	40.1	41	18.3	3	6	90	0.00	29.875 
15:55	40.1	37.4	40.1	42	18.9	4	10	112	0.00	29.875 
16:00	39.9	36.4	39.9	40	17.6	5	9	112	0.00	29.867 
16:05	39.8	35.5	39.8	41	18.0	6	13	112	0.00	29.867 
16:10	39.8	37.1	39.8	42	18.6	4	9	112	0.00	29.867 
16:15	39.8	35.5	39.8	40	17.5	6	11	112	0.00	29.868 
16:20	39.6	36.0	39.6	42	18.4	5	11	112	0.00	29.868 
16:25	39.5	35.2	39.5	41	17.8	6	13	112	0.00	29.868 
16:30	39.6	36.9	39.6	43	19.0	4	8	112	0.00	29.854 
16:35	39.6	36.0	39.6	42	18.4	5	9	112	0.00	29.854 
16:40	39.5	35.9	39.5	42	18.3	5	11	112	0.00	29.854 
16:45	39.3	34.9	39.3	42	18.1	6	13	112	0.00	29.844 
16:50	39.2	35.5	39.2	43	18.6	5	11	90	0.00	29.844 
16:55	39.2	35.5	39.2	43	18.6	5	13	112	0.00	29.844 
17:00	39.3	36.5	39.3	43	18.7	4	7	112	0.00	29.834 
17:05	39.2	34.8	39.2	42	18.1	6	13	112	0.00	29.834 
17:10	38.9	33.8	38.9	43	18.3	7	13	90	0.00	29.834 
17:15	39.1	36.3	39.1	43	18.5	4	10	112	0.00	29.833 
17:20	39.1	36.3	39.1	44	19.0	4	9	112	0.00	29.833 
17:25	38.9	35.2	38.9	42	17.8	5	9	112	0.00	29.833 
17:30	38.9	34.4	38.9	43	18.3	6	10	112	0.00	29.823 
17:35	38.8	35.1	38.8	43	18.2	5	12	90	0.00	29.823 
17:40	38.6	34.8	38.6	44	18.6	5	8	112	0.00	29.823 
17:45	38.6	34.8	38.6	43	18.1	5	9	90	0.00	29.822 
17:50	38.6	34.8	38.6	44	18.6	5	11	90	0.00	29.822 
17:55	38.6	35.7	38.6	45	19.1	4	7	90	0.00	29.822 
18:00	38.5	34.7	38.5	45	19.0	5	11	90	0.00	29.814 
18:05	38.3	35.4	38.3	45	18.8	4	10	112	0.00	29.814 
18:10	38.3	35.4	38.3	46	19.4	4	10	90	0.00	29.814 
18:15	38.2	35.2	38.2	46	19.3	4	12	112	0.00	29.829 
18:20	38.0	38.0	38.0	46	19.1	3	6	90	0.00	29.829 
18:25	38.0	38.0	38.0	46	19.1	3	6	90	0.00	29.829 
18:30	37.9	37.9	37.9	46	19.0	3	6	112	0.00	29.835 
18:35	37.8	37.8	37.8	47	19.4	2	6	90	0.00	29.835 
18:40	37.8	37.8	37.8	47	19.4	3	6	90	0.00	29.835 
18:45	37.6	37.6	37.6	47	19.2	3	6	90	0.00	29.838 
18:50	37.5	37.5	37.5	48	19.6	3	6	90	0.00	29.838 
18:55	37.5	34.4	37.5	47	19.1	4	7	112	0.00	29.838 
19:00	37.3	37.3	37.3	48	19.4	3	6	90	0.00	29.837 
19:05	37.2	34.1	37.2	49	19.8	4	7	112	0.00	29.837 
19:10	37.2	34.1	37.2	48	19.3	4	7	112	0.00	29.837 
19:15	37.2	37.2	37.2	48	19.3	3	5	90	0.00	29.831 
19:20	37.2	37.2	37.2	49	19.8	3	5	112	0.00	29.831 
19:25	37.0	37.0	37.0	49	19.6	3	6	90	0.00	29.831 
19:30	36.9	36.9	36.9	49	19.5	3	6	90	0.00	29.827 
19:35	36.9	36.9	36.9	49	19.5	2	5	112	0.00	29.827 
19:40	36.9	36.9	36.9	49	19.5	1	6	112	0.00	29.827 
19:45	37.0	37.0	37.0	49	19.6	3	7	112	0.00	29.829 
19:50	37.0	33.9	37.0	48	19.2	4	9	112	0.00	29.829 
19:55	37.0	37.0	37.0	47	18.7	3	7	112	0.00	29.829 
20:00	37.0	37.0	37.0	47	18.7	2	5	90	0.00	29.826 
20:05	37.0	37.0	37.0	46	18.2	3	9	112	0.00	29.826 
20:10	36.9	36.9	36.9	47	18.6	3	6	90	0.00	29.826 
20:15	36.9	36.9	36.9	46	18.1	3	8	112	0.00	29.824 
20:20	36.8	36.8	36.8	46	18.0	3	9	90	0.00	29.824 
20:25	36.8	33.6	36.8	45	17.5	4	7	112	0.00	29.824 
20:30	36.8	36.8	36.8	45	17.5	3	7	112	0.00	29.819 
20:35	36.8	36.8	36.8	45	17.5	3	7	112	0.00	29.819 
20:40	36.8	36.8	36.8	45	17.5	3	6	90	0.00	29.819 
20:45	36.8	33.6	36.8	46	18.0	4	7	90	0.00	29.817 
20:50	36.8	36.8	36.8	46	18.0	3	7	112	0.00	29.817 
20:55	36.8	36.8	36.8	46	18.0	3	6	112	0.00	29.817 
21:00	36.8	36.8	36.8	46	18.0	3	9	90	0.00	29.806 
21:05	37.0	37.0	37.0	46	18.2	3	9	112	0.00	29.806 
21:10	37.2	34.1	37.2	45	17.8	4	7	90	0.00	29.806 
21:15	37.3	37.3	37.3	45	17.9	3	7	112	0.00	29.803 
21:20	37.3	34.2	37.3	44	17.4	4	9	112	0.00	29.803 
21:25	37.2	37.2	37.2	44	17.3	3	10	90	0.00	29.803 
21:30	37.0	33.9	37.0	44	17.1	4	9	90	0.00	29.801 
21:35	36.9	33.7	36.9	45	17.6	4	11	90	0.00	29.801 
21:40	36.6	33.4	36.6	45	17.3	4	11	112	0.00	29.801 
21:45	36.3	33.0	36.3	46	17.5	4	6	90	0.00	29.800 
21:50	36.3	33.0	36.3	46	17.5	4	9	90	0.00	29.800 
21:55	36.2	36.2	36.2	46	17.4	3	7	90	0.00	29.800 
22:00	36.0	32.7	36.0	46	17.3	4	7	112	0.00	29.796 
22:05	36.0	36.0	36.0	47	17.7	3	6	90	0.00	29.796 
22:10	36.0	32.7	36.0	47	17.7	4	7	112	0.00	29.796 
22:15	36.0	32.7	36.0	47	17.7	4	6	112	0.00	29.788 
22:20	36.0	32.7	36.0	48	18.2	4	7	112	0.00	29.788 
22:25	35.9	32.6	35.9	48	18.1	4	6	90	0.00	29.788 
22:30	35.9	32.6	35.9	50	19.1	4	7	112	0.00	29.782 
22:35	35.8	35.8	35.8	50	19.0	3	7	112	0.00	29.782 
22:40	35.8	35.8	35.8	51	19.5	2	5	112	0.00	29.782 
22:45	35.6	32.2	35.6	51	19.3	4	7	112	0.00	29.776 
22:50	35.6	32.2	35.6	55	21.0	4	6	90	0.00	29.776 
22:55	35.5	35.5	35.5	53	20.1	3	8	90	0.00	29.776 
23:00	35.3	35.3	35.3	53	19.9	3	6	90	0.00	29.766 
23:05	35.3	31.9	35.3	53	19.9	4	6	112	0.00	29.766 
23:10	35.3	35.3	35.3	54	20.3	3	5	90	0.00	29.766 
23:15	35.2	35.2	35.2	54	20.2	2	4	112	0.00	29.756 
23:20	35.0	35.0	35.0	55	20.5	2	4	90	0.00	29.756 
23:25	34.9	34.9	34.9	55	20.4	2	4	112	0.00	29.756 
23:30	34.9	34.9	34.9	55	20.4	3	7	112	0.00	29.748 
23:35	34.7	31.2	34.7	56	20.6	4	7	112	0.00	29.748 
23:40	34.6	34.6	34.6	57	21.0	3	7	112	0.00	29.748 
23:45	34.4	34.4	34.4	57	20.8	2	6	112	0.00	29.754 
23:50	34.4	34.4	34.4	59	21.6	3	6	90	0.00	29.754 
23:55	34.1	34.1	34.1	61	22.1	3	9	112	0.00	29.754 

CoCoRaHS
IN-AL-39
A2 Web Hosting
Creative Commons License
GoDaddy
Look for:

loaded 2017-10-17 00:23:02 • last modified 2010-11-18 10:43:29
Privacy PolicyDisclaimer
• wx.awcolley.com is powered by PmWiki v.2002016 •
• all content (unless otherwise noted) © 2017 A W Colley